createdAt,value
2023-01-09T00:04:31.116Z,1.20
2023-01-09T00:09:33.182Z,1.38
2023-01-09T00:14:35.161Z,1.27
2023-01-09T00:19:37.202Z,1.10
2023-01-09T00:24:39.508Z,1.27
2023-01-09T00:29:42.378Z,1.00
2023-01-09T00:34:44.561Z,1.10
2023-01-09T00:39:47.221Z,1.10
2023-01-09T00:45:02.348Z,1.08
2023-01-09T00:50:13.360Z,1.40
2023-01-09T01:00:18.539Z,1.20
2023-01-09T01:05:58.464Z,1.40
2023-01-09T01:11:05.112Z,1.40
2023-01-09T01:16:10.207Z,1.52
2023-01-09T01:21:14.550Z,1.60
2023-01-09T01:26:17.227Z,1.60
2023-01-09T01:31:19.423Z,1.88
2023-01-09T01:36:21.466Z,1.67
2023-01-09T01:41:29.948Z,1.98
2023-01-09T01:46:33.911Z,1.45
2023-01-09T01:51:41.055Z,1.77
2023-01-09T01:56:48.578Z,2.33
2023-01-09T02:01:54.380Z,2.40
2023-01-09T02:06:57.154Z,2.50
2023-01-09T02:12:00.863Z,2.58
2023-01-09T02:17:05.632Z,3.10
2023-01-09T02:22:30.956Z,2.73
2023-01-09T02:28:18.481Z,2.65
2023-01-09T02:33:34.053Z,3.08
2023-01-09T02:38:55.148Z,2.58
2023-01-09T02:44:29.646Z,2.30
2023-01-09T02:49:36.185Z,2.25
2023-01-09T02:55:17.718Z,2.10
2023-01-09T03:00:49.084Z,2.70
2023-01-09T03:06:09.331Z,2.35
2023-01-09T03:11:11.930Z,2.30
2023-01-09T03:16:20.140Z,2.70
2023-01-09T03:21:23.214Z,2.38
2023-01-09T03:26:25.645Z,2.10
2023-01-09T03:31:27.745Z,2.03
2023-01-09T03:36:29.838Z,2.00
2023-01-09T03:41:31.857Z,1.95
2023-01-09T03:46:33.844Z,1.88
2023-01-09T03:51:35.949Z,2.28
2023-01-09T03:56:38.008Z,2.25
2023-01-09T04:01:41.903Z,1.90
2023-01-09T04:06:44.171Z,2.03
2023-01-09T04:11:46.386Z,1.60
2023-01-09T04:16:48.482Z,1.63
2023-01-09T04:21:50.869Z,1.50
2023-01-09T04:26:52.913Z,1.75
2023-01-09T04:31:55.315Z,1.58
2023-01-09T04:36:57.449Z,1.20
2023-01-09T04:41:59.555Z,1.60
2023-01-09T04:47:01.536Z,1.75
2023-01-09T04:52:03.828Z,1.60
2023-01-09T04:57:05.933Z,1.40
2023-01-09T05:02:08.136Z,1.60
2023-01-09T05:07:10.220Z,1.85
2023-01-09T05:12:12.371Z,2.05
2023-01-09T05:17:14.744Z,1.75
2023-01-09T05:22:16.936Z,1.42
2023-01-09T05:27:18.997Z,1.70
2023-01-09T05:32:21.309Z,2.00
2023-01-09T05:37:23.441Z,1.77
2023-01-09T05:42:25.408Z,2.05
2023-01-09T05:47:28.045Z,1.70
2023-01-09T05:52:30.233Z,1.90
2023-01-09T05:57:32.277Z,2.70
2023-01-09T06:02:34.610Z,1.90
2023-01-09T06:07:39.860Z,2.00
2023-01-09T06:12:48.297Z,2.33
2023-01-09T06:17:50.553Z,1.95
2023-01-09T06:22:53.116Z,2.00
2023-01-09T06:27:55.138Z,1.75
2023-01-09T06:32:58.676Z,2.28
2023-01-09T06:38:02.963Z,2.38
2023-01-09T06:43:06.088Z,1.92
2023-01-09T06:48:08.081Z,2.20
2023-01-09T06:53:11.211Z,2.50
2023-01-09T06:58:13.569Z,2.25
2023-01-09T07:03:20.481Z,2.45
2023-01-09T07:08:22.501Z,2.53
2023-01-09T07:13:24.652Z,2.85
2023-01-09T07:18:26.776Z,3.10
2023-01-09T07:23:28.792Z,2.95
2023-01-09T07:28:30.834Z,2.90
2023-01-09T07:33:33.568Z,3.25
2023-01-09T07:38:37.459Z,3.70
2023-01-09T07:43:40.469Z,4.53
2023-01-09T07:48:42.456Z,4.93
2023-01-09T07:53:44.618Z,4.32
2023-01-09T07:58:46.892Z,5.00
2023-01-09T08:03:48.999Z,5.13
2023-01-09T08:08:51.069Z,6.20
2023-01-09T08:13:53.074Z,5.63
2023-01-09T08:18:55.096Z,4.57
2023-01-09T08:23:57.801Z,5.07
2023-01-09T08:28:59.827Z,4.40
2023-01-09T08:34:02.273Z,4.70
2023-01-09T08:39:04.916Z,5.25
2023-01-09T08:44:25.800Z,6.15
2023-01-09T08:49:29.275Z,6.63
2023-01-09T08:54:31.399Z,6.05
2023-01-09T08:59:33.837Z,6.03
2023-01-09T09:04:35.958Z,5.57
2023-01-09T09:09:38.171Z,6.28
2023-01-09T09:14:59.155Z,6.82
2023-01-09T09:20:01.409Z,5.93
2023-01-09T09:25:04.749Z,6.55
2023-01-09T09:30:07.555Z,6.05
2023-01-09T09:35:10.683Z,6.20
2023-01-09T09:40:27.667Z,6.10
2023-01-09T09:45:38.251Z,7.20
2023-01-09T09:50:49.760Z,6.38
2023-01-09T10:00:54.979Z,4.30
2023-01-09T10:05:58.661Z,4.15
2023-01-09T10:11:01.228Z,4.00
2023-01-09T10:16:45.819Z,4.32
2023-01-09T10:22:07.838Z,3.72
2023-01-09T10:27:24.837Z,4.55
2023-01-09T10:32:27.424Z,5.55
2023-01-09T10:37:33.543Z,5.30
2023-01-09T10:42:40.858Z,4.53
2023-01-09T10:47:45.440Z,5.28
2023-01-09T10:52:50.913Z,4.57
2023-01-09T10:58:02.587Z,4.90
2023-01-09T11:03:05.427Z,4.60
2023-01-09T11:08:13.150Z,4.60
2023-01-09T11:13:19.395Z,4.68
2023-01-09T11:18:24.669Z,4.65
2023-01-09T11:23:33.582Z,4.50
2023-01-09T11:28:35.770Z,5.57
2023-01-09T11:33:42.882Z,5.10
2023-01-09T11:38:57.800Z,4.93
2023-01-09T11:44:01.589Z,5.13
2023-01-09T11:49:19.705Z,4.30
2023-01-09T11:54:26.426Z,4.88
2023-01-09T11:59:30.841Z,4.15
2023-01-09T12:04:42.860Z,4.53
2023-01-09T12:10:12.827Z,4.25
2023-01-09T12:15:51.598Z,3.58
2023-01-09T12:21:20.408Z,4.70
2023-01-09T12:26:34.151Z,4.22
2023-01-09T12:32:01.429Z,5.70
2023-01-09T12:37:20.302Z,5.05
2023-01-09T12:43:10.889Z,4.93
2023-01-09T12:48:24.164Z,3.50
2023-01-09T12:53:34.693Z,3.60
2023-01-09T12:58:44.817Z,4.13
2023-01-09T13:04:20.907Z,2.47
2023-01-09T13:09:43.461Z,3.15
2023-01-09T13:14:55.125Z,3.17
2023-01-09T13:19:57.373Z,2.65
2023-01-09T13:25:29.664Z,3.50
2023-01-09T13:30:37.770Z,3.17
2023-01-09T13:35:59.726Z,3.60
2023-01-09T13:41:35.000Z,3.60
2023-01-09T13:46:46.379Z,4.05
2023-01-09T13:51:48.631Z,3.92
2023-01-09T13:57:18.537Z,3.65
2023-01-09T14:02:36.081Z,3.78
2023-01-09T14:07:41.217Z,4.40
2023-01-09T14:12:43.841Z,2.88
2023-01-09T14:17:45.962Z,2.70
2023-01-09T14:23:02.430Z,2.63
2023-01-09T14:28:20.487Z,2.67
2023-01-09T14:33:23.551Z,2.38
2023-01-09T14:38:34.466Z,2.00
2023-01-09T14:43:46.674Z,1.73
2023-01-09T14:49:07.054Z,1.00
2023-01-09T14:54:27.869Z,1.48
2023-01-09T14:59:29.942Z,1.87
2023-01-09T15:04:40.562Z,1.60
2023-01-09T15:09:45.663Z,1.52
2023-01-09T15:14:53.714Z,1.65
2023-01-09T15:19:57.411Z,1.85
2023-01-09T15:25:40.658Z,2.20
2023-01-09T15:30:43.327Z,3.50
2023-01-09T15:35:49.060Z,1.90
2023-01-09T15:41:12.802Z,1.67
2023-01-09T15:46:15.604Z,2.03
2023-01-09T15:51:18.398Z,2.00
2023-01-09T15:56:30.256Z,2.45
2023-01-09T16:01:39.901Z,1.80
2023-01-09T16:06:48.347Z,1.80
2023-01-09T16:11:53.672Z,1.83
2023-01-09T16:17:07.319Z,2.65
2023-01-09T16:22:33.141Z,2.22
2023-01-09T16:27:36.334Z,2.30
2023-01-09T16:32:51.343Z,2.08
2023-01-09T16:37:53.408Z,2.17
2023-01-09T16:43:01.891Z,1.90
2023-01-09T16:48:14.585Z,3.00
2023-01-09T16:53:22.629Z,3.15
2023-01-09T16:58:28.347Z,2.92
2023-01-09T17:03:30.415Z,5.07
2023-01-09T17:08:35.497Z,2.00
2023-01-09T17:13:37.703Z,1.80
2023-01-09T17:18:40.348Z,1.92
2023-01-09T17:23:43.011Z,1.98
2023-01-09T17:28:49.200Z,2.33
2023-01-09T17:33:51.284Z,1.90
2023-01-09T17:38:55.101Z,1.90
2023-01-09T17:43:59.010Z,1.65
2023-01-09T17:49:02.943Z,2.15
2023-01-09T17:54:05.096Z,2.30
2023-01-09T17:59:10.353Z,2.03
2023-01-09T18:04:12.480Z,2.20
2023-01-09T18:09:17.172Z,2.95
2023-01-09T18:14:19.461Z,3.38
2023-01-09T18:19:21.506Z,4.30
2023-01-09T18:24:23.545Z,3.78
2023-01-09T18:29:25.814Z,3.80
2023-01-09T18:34:28.019Z,2.17
2023-01-09T18:39:30.261Z,2.33
2023-01-09T18:44:32.357Z,3.35
2023-01-09T18:49:34.623Z,2.80
2023-01-09T18:54:38.204Z,14.40
2023-01-09T18:59:40.305Z,6.28
2023-01-09T19:04:42.561Z,3.13
2023-01-09T19:09:45.485Z,3.13
2023-01-09T19:14:47.612Z,5.20
2023-01-09T19:19:50.026Z,6.05
2023-01-09T19:24:52.189Z,4.70
2023-01-09T19:29:54.379Z,4.45
2023-01-09T19:34:56.512Z,5.13
2023-01-09T19:39:58.625Z,6.38
2023-01-09T19:45:00.735Z,5.45
2023-01-09T19:50:05.232Z,4.95
2023-01-09T19:55:10.941Z,5.18
2023-01-09T20:00:14.757Z,5.35
2023-01-09T20:05:17.732Z,5.63
2023-01-09T20:10:19.952Z,6.32
2023-01-09T20:15:22.663Z,5.28
2023-01-09T20:20:24.819Z,6.28
2023-01-09T20:25:27.090Z,5.90
2023-01-09T20:30:29.057Z,5.57
2023-01-09T20:35:31.391Z,5.40
2023-01-09T20:40:37.341Z,3.97
2023-01-09T20:45:40.534Z,3.70
2023-01-09T20:50:42.787Z,3.00
2023-01-09T20:55:44.880Z,3.00
2023-01-09T21:00:47.829Z,3.00
2023-01-09T21:05:50.082Z,3.47
2023-01-09T21:10:56.964Z,2.80
2023-01-09T21:16:04.372Z,2.95
2023-01-09T21:21:10.371Z,2.30
2023-01-09T21:26:14.075Z,2.47
2023-01-09T21:31:19.361Z,2.78
2023-01-09T21:36:21.739Z,2.65
2023-01-09T21:41:42.242Z,2.90
2023-01-09T21:46:53.348Z,2.80
2023-01-09T21:51:55.726Z,3.35
2023-01-09T21:56:58.979Z,2.78
2023-01-09T22:02:01.388Z,2.90
2023-01-09T22:07:03.477Z,3.33
2023-01-09T22:12:05.845Z,2.70
2023-01-09T22:17:07.921Z,3.03
2023-01-09T22:22:10.056Z,3.35
2023-01-09T22:27:12.062Z,3.17
2023-01-09T22:32:14.069Z,3.42
2023-01-09T22:37:16.184Z,3.90
2023-01-09T22:42:18.261Z,3.63
2023-01-09T22:47:20.262Z,3.15
2023-01-09T22:52:22.392Z,3.08
2023-01-09T22:57:24.608Z,2.97
2023-01-09T23:02:26.784Z,2.63
2023-01-09T23:07:28.908Z,3.05
2023-01-09T23:12:31.526Z,2.70
2023-01-09T23:17:33.544Z,3.03
2023-01-09T23:22:35.644Z,3.03
2023-01-09T23:27:37.697Z,2.78
2023-01-09T23:32:39.801Z,2.95
2023-01-09T23:37:43.657Z,2.75
2023-01-09T23:43:04.012Z,2.55
2023-01-09T23:48:07.869Z,2.90
2023-01-09T23:53:10.293Z,2.75
2023-01-09T23:58:12.550Z,2.03
